sensor_id;sensor_type;location;lat;lon;timestamp;temperature;humidity
12123;DHT22;6125;59.628;17.852;2023-04-08T00:02:07;3.00;99.90
12123;DHT22;6125;59.628;17.852;2023-04-08T00:04:34;3.00;99.90
12123;DHT22;6125;59.628;17.852;2023-04-08T00:07:01;3.00;99.90
12123;DHT22;6125;59.628;17.852;2023-04-08T00:09:29;3.00;99.90
12123;DHT22;6125;59.628;17.852;2023-04-08T00:11:56;3.00;99.90
12123;DHT22;6125;59.628;17.852;2023-04-08T00:14:23;3.00;99.90
12123;DHT22;6125;59.628;17.852;2023-04-08T00:16:50;3.00;99.90
12123;DHT22;6125;59.628;17.852;2023-04-08T00:19:17;3.00;99.90
12123;DHT22;6125;59.628;17.852;2023-04-08T00:21:44;3.00;99.90
12123;DHT22;6125;59.628;17.852;2023-04-08T00:24:12;3.00;99.90
12123;DHT22;6125;59.628;17.852;2023-04-08T00:26:40;3.00;99.90
12123;DHT22;6125;59.628;17.852;2023-04-08T00:29:07;3.00;99.90
12123;DHT22;6125;59.628;17.852;2023-04-08T00:31:34;3.00;99.90
12123;DHT22;6125;59.628;17.852;2023-04-08T00:34:01;2.90;99.90
12123;DHT22;6125;59.628;17.852;2023-04-08T00:36:28;2.90;99.90
12123;DHT22;6125;59.628;17.852;2023-04-08T00:38:55;2.90;99.90
12123;DHT22;6125;59.628;17.852;2023-04-08T00:41:22;2.80;99.90
12123;DHT22;6125;59.628;17.852;2023-04-08T00:43:51;2.80;99.90
12123;DHT22;6125;59.628;17.852;2023-04-08T00:46:18;2.80;99.90
12123;DHT22;6125;59.628;17.852;2023-04-08T00:48:45;2.80;99.90
12123;DHT22;6125;59.628;17.852;2023-04-08T00:51:12;2.80;99.90
12123;DHT22;6125;59.628;17.852;2023-04-08T00:53:40;2.80;99.90
12123;DHT22;6125;59.628;17.852;2023-04-08T00:56:07;2.90;99.90
12123;DHT22;6125;59.628;17.852;2023-04-08T00:58:34;2.80;99.90
12123;DHT22;6125;59.628;17.852;2023-04-08T01:01:17;2.80;99.90
12123;DHT22;6125;59.628;17.852;2023-04-08T01:03:53;2.70;99.90
12123;DHT22;6125;59.628;17.852;2023-04-08T01:06:26;2.60;99.90
12123;DHT22;6125;59.628;17.852;2023-04-08T01:08:57;2.60;99.90
12123;DHT22;6125;59.628;17.852;2023-04-08T01:11:26;2.50;99.90
12123;DHT22;6125;59.628;17.852;2023-04-08T01:13:56;2.50;99.90
12123;DHT22;6125;59.628;17.852;2023-04-08T01:16:25;2.40;99.90
12123;DHT22;6125;59.628;17.852;2023-04-08T01:18:53;2.30;99.90
12123;DHT22;6125;59.628;17.852;2023-04-08T01:21:21;2.20;99.90
12123;DHT22;6125;59.628;17.852;2023-04-08T01:23:56;2.10;99.90
12123;DHT22;6125;59.628;17.852;2023-04-08T01:26:28;2.00;99.90
12123;DHT22;6125;59.628;17.852;2023-04-08T01:28:59;2.00;99.90
12123;DHT22;6125;59.628;17.852;2023-04-08T01:31:28;1.90;99.90
12123;DHT22;6125;59.628;17.852;2023-04-08T01:33:56;1.90;99.90
12123;DHT22;6125;59.628;17.852;2023-04-08T01:36:26;1.80;99.90
12123;DHT22;6125;59.628;17.852;2023-04-08T01:38:54;1.90;99.90
12123;DHT22;6125;59.628;17.852;2023-04-08T01:41:22;1.80;99.90
12123;DHT22;6125;59.628;17.852;2023-04-08T01:43:51;1.80;99.90
12123;DHT22;6125;59.628;17.852;2023-04-08T01:46:19;1.70;99.90
12123;DHT22;6125;59.628;17.852;2023-04-08T01:48:47;1.60;99.90
12123;DHT22;6125;59.628;17.852;2023-04-08T01:51:16;1.60;99.90
12123;DHT22;6125;59.628;17.852;2023-04-08T01:53:43;1.50;99.90
12123;DHT22;6125;59.628;17.852;2023-04-08T01:56:11;1.50;99.90
12123;DHT22;6125;59.628;17.852;2023-04-08T01:58:41;1.40;99.90
12123;DHT22;6125;59.628;17.852;2023-04-08T02:01:12;1.30;99.90
12123;DHT22;6125;59.628;17.852;2023-04-08T02:03:42;1.30;99.90
12123;DHT22;6125;59.628;17.852;2023-04-08T02:06:10;1.20;99.90
12123;DHT22;6125;59.628;17.852;2023-04-08T02:08:37;1.20;99.90
12123;DHT22;6125;59.628;17.852;2023-04-08T02:11:04;1.20;99.90
12123;DHT22;6125;59.628;17.852;2023-04-08T02:13:31;1.10;99.90
12123;DHT22;6125;59.628;17.852;2023-04-08T02:16:03;1.10;99.90
12123;DHT22;6125;59.628;17.852;2023-04-08T02:18:34;1.00;99.90
12123;DHT22;6125;59.628;17.852;2023-04-08T02:21:07;1.00;99.90
12123;DHT22;6125;59.628;17.852;2023-04-08T02:23:38;0.90;99.90
12123;DHT22;6125;59.628;17.852;2023-04-08T02:26:08;0.80;99.90
12123;DHT22;6125;59.628;17.852;2023-04-08T02:28:39;0.80;99.90
12123;DHT22;6125;59.628;17.852;2023-04-08T02:31:10;0.80;99.90
12123;DHT22;6125;59.628;17.852;2023-04-08T02:33:39;0.80;99.90
12123;DHT22;6125;59.628;17.852;2023-04-08T02:36:07;0.70;99.90
12123;DHT22;6125;59.628;17.852;2023-04-08T02:38:35;0.70;99.90
12123;DHT22;6125;59.628;17.852;2023-04-08T02:41:02;0.60;99.90
12123;DHT22;6125;59.628;17.852;2023-04-08T02:43:29;0.60;99.90
12123;DHT22;6125;59.628;17.852;2023-04-08T02:45:58;0.60;99.90
12123;DHT22;6125;59.628;17.852;2023-04-08T02:48:27;0.50;99.90
12123;DHT22;6125;59.628;17.852;2023-04-08T02:50:56;0.50;99.90
12123;DHT22;6125;59.628;17.852;2023-04-08T02:53:23;0.40;99.90
12123;DHT22;6125;59.628;17.852;2023-04-08T02:55:51;0.40;99.90
12123;DHT22;6125;59.628;17.852;2023-04-08T02:58:18;0.30;99.90
12123;DHT22;6125;59.628;17.852;2023-04-08T03:00:45;0.30;99.90
12123;DHT22;6125;59.628;17.852;2023-04-08T03:03:12;0.30;99.90
12123;DHT22;6125;59.628;17.852;2023-04-08T03:05:40;0.20;99.90
12123;DHT22;6125;59.628;17.852;2023-04-08T03:08:08;0.20;99.90
12123;DHT22;6125;59.628;17.852;2023-04-08T03:10:35;0.20;99.90
12123;DHT22;6125;59.628;17.852;2023-04-08T03:13:02;0.10;99.90
12123;DHT22;6125;59.628;17.852;2023-04-08T03:15:29;0.10;99.90
12123;DHT22;6125;59.628;17.852;2023-04-08T03:17:56;0.00;99.90
12123;DHT22;6125;59.628;17.852;2023-04-08T03:20:23;0.00;99.90
12123;DHT22;6125;59.628;17.852;2023-04-08T03:22:50;0.00;99.90
12123;DHT22;6125;59.628;17.852;2023-04-08T03:25:19;-0.10;99.90
12123;DHT22;6125;59.628;17.852;2023-04-08T03:27:46;-0.10;99.90
12123;DHT22;6125;59.628;17.852;2023-04-08T03:30:13;-0.10;99.90
12123;DHT22;6125;59.628;17.852;2023-04-08T03:32:40;-0.20;99.90
12123;DHT22;6125;59.628;17.852;2023-04-08T03:35:08;-0.20;99.90
12123;DHT22;6125;59.628;17.852;2023-04-08T03:37:35;-0.30;99.90
12123;DHT22;6125;59.628;17.852;2023-04-08T03:40:02;-0.30;99.90
12123;DHT22;6125;59.628;17.852;2023-04-08T03:42:30;-0.30;99.90
12123;DHT22;6125;59.628;17.852;2023-04-08T03:44:58;-0.40;99.90
12123;DHT22;6125;59.628;17.852;2023-04-08T03:47:25;-0.40;99.90
12123;DHT22;6125;59.628;17.852;2023-04-08T03:49:52;-0.40;99.90
12123;DHT22;6125;59.628;17.852;2023-04-08T03:52:20;-0.40;99.90
12123;DHT22;6125;59.628;17.852;2023-04-08T03:54:47;-0.40;99.90
12123;DHT22;6125;59.628;17.852;2023-04-08T03:57:14;-0.50;99.90
12123;DHT22;6125;59.628;17.852;2023-04-08T03:59:42;-0.50;99.90
12123;DHT22;6125;59.628;17.852;2023-04-08T04:02:09;-0.60;99.90
12123;DHT22;6125;59.628;17.852;2023-04-08T04:04:36;-0.60;99.90
12123;DHT22;6125;59.628;17.852;2023-04-08T04:07:03;-0.60;99.90
12123;DHT22;6125;59.628;17.852;2023-04-08T04:09:30;-0.60;99.90
12123;DHT22;6125;59.628;17.852;2023-04-08T04:11:57;-0.60;99.90
12123;DHT22;6125;59.628;17.852;2023-04-08T04:14:24;-0.60;99.90
12123;DHT22;6125;59.628;17.852;2023-04-08T04:16:53;-0.60;99.90
12123;DHT22;6125;59.628;17.852;2023-04-08T04:19:20;-0.60;99.90
12123;DHT22;6125;59.628;17.852;2023-04-08T04:21:47;-0.60;99.90
12123;DHT22;6125;59.628;17.852;2023-04-08T04:24:14;-0.60;99.90
12123;DHT22;6125;59.628;17.852;2023-04-08T04:26:41;-0.50;99.90
12123;DHT22;6125;59.628;17.852;2023-04-08T04:29:08;-0.50;99.90
12123;DHT22;6125;59.628;17.852;2023-04-08T04:31:35;-0.50;99.90
12123;DHT22;6125;59.628;17.852;2023-04-08T04:34:09;-0.50;99.90
12123;DHT22;6125;59.628;17.852;2023-04-08T04:36:36;-0.50;99.90
12123;DHT22;6125;59.628;17.852;2023-04-08T04:39:03;-0.50;99.90
12123;DHT22;6125;59.628;17.852;2023-04-08T04:41:31;-0.50;99.90
12123;DHT22;6125;59.628;17.852;2023-04-08T04:43:59;-0.50;99.90
12123;DHT22;6125;59.628;17.852;2023-04-08T04:46:27;-0.50;99.90
12123;DHT22;6125;59.628;17.852;2023-04-08T04:48:54;-0.50;99.90
12123;DHT22;6125;59.628;17.852;2023-04-08T04:51:22;-0.50;99.90
12123;DHT22;6125;59.628;17.852;2023-04-08T04:53:49;-0.50;99.90
12123;DHT22;6125;59.628;17.852;2023-04-08T04:56:16;-0.50;99.90
12123;DHT22;6125;59.628;17.852;2023-04-08T04:58:44;-0.40;99.90
12123;DHT22;6125;59.628;17.852;2023-04-08T05:01:11;-0.40;99.90
12123;DHT22;6125;59.628;17.852;2023-04-08T05:03:38;-0.40;99.90
12123;DHT22;6125;59.628;17.852;2023-04-08T05:06:05;-0.30;99.90
12123;DHT22;6125;59.628;17.852;2023-04-08T05:08:33;-0.30;99.90
12123;DHT22;6125;59.628;17.852;2023-04-08T05:11:00;-0.20;99.90
12123;DHT22;6125;59.628;17.852;2023-04-08T05:13:27;-0.20;99.90
12123;DHT22;6125;59.628;17.852;2023-04-08T05:15:54;-0.20;99.90
12123;DHT22;6125;59.628;17.852;2023-04-08T05:18:22;-0.10;99.90
12123;DHT22;6125;59.628;17.852;2023-04-08T05:20:49;-0.10;99.90
12123;DHT22;6125;59.628;17.852;2023-04-08T05:23:16;0.00;99.90
12123;DHT22;6125;59.628;17.852;2023-04-08T05:25:44;0.00;99.90
12123;DHT22;6125;59.628;17.852;2023-04-08T05:28:11;0.10;99.90
12123;DHT22;6125;59.628;17.852;2023-04-08T05:30:38;0.20;99.90
12123;DHT22;6125;59.628;17.852;2023-04-08T05:33:05;0.20;99.90
12123;DHT22;6125;59.628;17.852;2023-04-08T05:35:32;0.30;99.90
12123;DHT22;6125;59.628;17.852;2023-04-08T05:37:59;0.30;99.90
12123;DHT22;6125;59.628;17.852;2023-04-08T05:40:26;0.40;99.90
12123;DHT22;6125;59.628;17.852;2023-04-08T05:42:55;0.50;99.90
12123;DHT22;6125;59.628;17.852;2023-04-08T05:45:22;0.60;99.90
12123;DHT22;6125;59.628;17.852;2023-04-08T05:47:49;0.60;99.90
12123;DHT22;6125;59.628;17.852;2023-04-08T05:50:16;0.60;99.90
12123;DHT22;6125;59.628;17.852;2023-04-08T05:52:43;0.80;99.90
12123;DHT22;6125;59.628;17.852;2023-04-08T05:55:11;0.80;99.90
12123;DHT22;6125;59.628;17.852;2023-04-08T05:57:39;0.90;99.90
12123;DHT22;6125;59.628;17.852;2023-04-08T06:00:08;1.00;99.90
12123;DHT22;6125;59.628;17.852;2023-04-08T06:02:36;1.10;99.90
12123;DHT22;6125;59.628;17.852;2023-04-08T06:05:04;1.10;99.90
12123;DHT22;6125;59.628;17.852;2023-04-08T06:07:31;1.30;99.90
12123;DHT22;6125;59.628;17.852;2023-04-08T06:09:59;1.40;99.90
12123;DHT22;6125;59.628;17.852;2023-04-08T06:12:25;1.40;99.90
12123;DHT22;6125;59.628;17.852;2023-04-08T06:14:53;1.50;99.90
12123;DHT22;6125;59.628;17.852;2023-04-08T06:17:22;1.60;99.90
12123;DHT22;6125;59.628;17.852;2023-04-08T06:19:49;1.70;99.90
12123;DHT22;6125;59.628;17.852;2023-04-08T06:22:16;1.80;99.90
12123;DHT22;6125;59.628;17.852;2023-04-08T06:24:43;1.90;99.90
12123;DHT22;6125;59.628;17.852;2023-04-08T06:27:17;2.00;99.90
12123;DHT22;6125;59.628;17.852;2023-04-08T06:29:44;2.00;99.90
12123;DHT22;6125;59.628;17.852;2023-04-08T06:32:11;2.20;99.90
12123;DHT22;6125;59.628;17.852;2023-04-08T06:34:40;2.20;99.90
12123;DHT22;6125;59.628;17.852;2023-04-08T06:37:07;2.30;99.90
12123;DHT22;6125;59.628;17.852;2023-04-08T06:39:34;2.40;99.90
12123;DHT22;6125;59.628;17.852;2023-04-08T06:42:01;2.50;99.90
12123;DHT22;6125;59.628;17.852;2023-04-08T06:44:28;2.60;99.90
12123;DHT22;6125;59.628;17.852;2023-04-08T06:46:55;2.70;99.90
12123;DHT22;6125;59.628;17.852;2023-04-08T06:49:22;2.80;99.90
12123;DHT22;6125;59.628;17.852;2023-04-08T06:51:51;2.90;99.90
12123;DHT22;6125;59.628;17.852;2023-04-08T06:54:18;2.90;99.90
12123;DHT22;6125;59.628;17.852;2023-04-08T06:56:45;3.00;99.90
12123;DHT22;6125;59.628;17.852;2023-04-08T06:59:12;3.10;99.90
12123;DHT22;6125;59.628;17.852;2023-04-08T07:01:39;3.20;99.90
12123;DHT22;6125;59.628;17.852;2023-04-08T07:04:06;3.30;99.90
12123;DHT22;6125;59.628;17.852;2023-04-08T07:06:33;3.40;99.90
12123;DHT22;6125;59.628;17.852;2023-04-08T07:09:01;3.50;99.90
12123;DHT22;6125;59.628;17.852;2023-04-08T07:11:31;3.60;99.90
12123;DHT22;6125;59.628;17.852;2023-04-08T07:13:58;3.70;99.90
12123;DHT22;6125;59.628;17.852;2023-04-08T07:16:25;3.70;99.90
12123;DHT22;6125;59.628;17.852;2023-04-08T07:18:52;3.80;99.90
12123;DHT22;6125;59.628;17.852;2023-04-08T07:21:19;3.90;99.90
12123;DHT22;6125;59.628;17.852;2023-04-08T07:23:46;4.00;99.90
12123;DHT22;6125;59.628;17.852;2023-04-08T07:26:14;4.10;99.90
12123;DHT22;6125;59.628;17.852;2023-04-08T07:28:41;4.20;99.90
12123;DHT22;6125;59.628;17.852;2023-04-08T07:31:10;4.30;99.90
12123;DHT22;6125;59.628;17.852;2023-04-08T07:33:37;4.40;99.90
12123;DHT22;6125;59.628;17.852;2023-04-08T07:36:04;4.50;99.90
12123;DHT22;6125;59.628;17.852;2023-04-08T07:38:32;4.60;99.90
12123;DHT22;6125;59.628;17.852;2023-04-08T07:40:59;4.60;99.90
12123;DHT22;6125;59.628;17.852;2023-04-08T07:43:27;4.70;99.90
12123;DHT22;6125;59.628;17.852;2023-04-08T07:45:59;4.80;99.90
12123;DHT22;6125;59.628;17.852;2023-04-08T07:48:28;4.90;99.90
12123;DHT22;6125;59.628;17.852;2023-04-08T07:50:55;5.00;99.90
12123;DHT22;6125;59.628;17.852;2023-04-08T07:53:22;5.00;99.90
12123;DHT22;6125;59.628;17.852;2023-04-08T07:55:51;5.10;99.90
12123;DHT22;6125;59.628;17.852;2023-04-08T07:58:18;5.20;99.90
12123;DHT22;6125;59.628;17.852;2023-04-08T08:00:46;5.30;99.90
12123;DHT22;6125;59.628;17.852;2023-04-08T08:03:13;5.30;99.90
12123;DHT22;6125;59.628;17.852;2023-04-08T08:05:40;5.30;99.90
12123;DHT22;6125;59.628;17.852;2023-04-08T08:08:07;5.40;99.90
12123;DHT22;6125;59.628;17.852;2023-04-08T08:10:36;5.50;99.90
12123;DHT22;6125;59.628;17.852;2023-04-08T08:13:03;5.60;99.90
12123;DHT22;6125;59.628;17.852;2023-04-08T08:15:30;5.70;99.90
12123;DHT22;6125;59.628;17.852;2023-04-08T08:17:59;5.70;99.90
12123;DHT22;6125;59.628;17.852;2023-04-08T08:20:26;5.90;99.90
12123;DHT22;6125;59.628;17.852;2023-04-08T08:22:53;6.00;99.90
12123;DHT22;6125;59.628;17.852;2023-04-08T08:25:20;6.00;99.90
12123;DHT22;6125;59.628;17.852;2023-04-08T08:27:47;6.10;99.90
12123;DHT22;6125;59.628;17.852;2023-04-08T08:30:15;6.20;99.90
12123;DHT22;6125;59.628;17.852;2023-04-08T08:32:44;6.30;99.90
12123;DHT22;6125;59.628;17.852;2023-04-08T08:35:13;6.40;99.90
12123;DHT22;6125;59.628;17.852;2023-04-08T08:37:40;6.40;99.90
12123;DHT22;6125;59.628;17.852;2023-04-08T08:40:08;6.50;99.90
12123;DHT22;6125;59.628;17.852;2023-04-08T08:42:35;6.60;99.90
12123;DHT22;6125;59.628;17.852;2023-04-08T08:45:02;6.60;99.90
12123;DHT22;6125;59.628;17.852;2023-04-08T08:47:30;6.70;99.90
12123;DHT22;6125;59.628;17.852;2023-04-08T08:49:57;6.80;99.90
12123;DHT22;6125;59.628;17.852;2023-04-08T08:52:26;6.80;99.90
12123;DHT22;6125;59.628;17.852;2023-04-08T08:54:57;6.80;99.90
12123;DHT22;6125;59.628;17.852;2023-04-08T08:57:24;6.90;99.90
12123;DHT22;6125;59.628;17.852;2023-04-08T08:59:51;6.90;99.90
12123;DHT22;6125;59.628;17.852;2023-04-08T09:02:26;7.00;99.90
12123;DHT22;6125;59.628;17.852;2023-04-08T09:04:58;7.10;99.90
12123;DHT22;6125;59.628;17.852;2023-04-08T09:07:28;7.10;99.90
12123;DHT22;6125;59.628;17.852;2023-04-08T09:09:57;7.20;99.90
12123;DHT22;6125;59.628;17.852;2023-04-08T09:12:25;7.20;99.90
12123;DHT22;6125;59.628;17.852;2023-04-08T09:15:03;7.30;99.90
12123;DHT22;6125;59.628;17.852;2023-04-08T09:17:31;7.40;99.90
12123;DHT22;6125;59.628;17.852;2023-04-08T09:20:09;7.50;99.90
12123;DHT22;6125;59.628;17.852;2023-04-08T09:22:57;7.60;99.90
12123;DHT22;6125;59.628;17.852;2023-04-08T09:25:25;7.70;99.90
12123;DHT22;6125;59.628;17.852;2023-04-08T09:27:52;7.70;99.90
12123;DHT22;6125;59.628;17.852;2023-04-08T09:30:21;7.80;99.90
12123;DHT22;6125;59.628;17.852;2023-04-08T09:32:49;7.80;99.90
12123;DHT22;6125;59.628;17.852;2023-04-08T09:35:17;7.80;99.90
12123;DHT22;6125;59.628;17.852;2023-04-08T09:37:44;7.80;99.90
12123;DHT22;6125;59.628;17.852;2023-04-08T09:40:14;7.90;99.90
12123;DHT22;6125;59.628;17.852;2023-04-08T09:42:44;7.90;99.90
12123;DHT22;6125;59.628;17.852;2023-04-08T09:45:14;8.00;99.90
12123;DHT22;6125;59.628;17.852;2023-04-08T09:47:49;8.10;99.90
12123;DHT22;6125;59.628;17.852;2023-04-08T09:50:19;8.10;99.90
12123;DHT22;6125;59.628;17.852;2023-04-08T09:52:52;8.20;99.90
12123;DHT22;6125;59.628;17.852;2023-04-08T09:55:25;8.20;99.90
12123;DHT22;6125;59.628;17.852;2023-04-08T09:57:57;8.20;99.90
12123;DHT22;6125;59.628;17.852;2023-04-08T10:00:31;8.20;99.90
12123;DHT22;6125;59.628;17.852;2023-04-08T10:03:05;8.30;99.90
12123;DHT22;6125;59.628;17.852;2023-04-08T10:05:36;8.30;99.90
12123;DHT22;6125;59.628;17.852;2023-04-08T10:08:04;8.30;99.90
12123;DHT22;6125;59.628;17.852;2023-04-08T10:10:33;8.50;99.90
12123;DHT22;6125;59.628;17.852;2023-04-08T10:13:02;8.50;99.90
12123;DHT22;6125;59.628;17.852;2023-04-08T10:15:30;8.60;99.90
12123;DHT22;6125;59.628;17.852;2023-04-08T10:20:58;8.70;99.90
12123;DHT22;6125;59.628;17.852;2023-04-08T10:23:53;8.80;99.90
12123;DHT22;6125;59.628;17.852;2023-04-08T10:26:32;8.80;99.90
12123;DHT22;6125;59.628;17.852;2023-04-08T10:29:29;8.90;99.90
12123;DHT22;6125;59.628;17.852;2023-04-08T10:31:57;9.10;99.90
12123;DHT22;6125;59.628;17.852;2023-04-08T10:34:25;9.10;99.90
12123;DHT22;6125;59.628;17.852;2023-04-08T10:36:53;9.20;99.90
12123;DHT22;6125;59.628;17.852;2023-04-08T10:39:21;9.30;99.90
12123;DHT22;6125;59.628;17.852;2023-04-08T10:41:50;9.40;99.90
12123;DHT22;6125;59.628;17.852;2023-04-08T10:44:17;9.40;99.90
12123;DHT22;6125;59.628;17.852;2023-04-08T10:46:45;9.60;99.90
12123;DHT22;6125;59.628;17.852;2023-04-08T10:49:13;9.60;99.90
12123;DHT22;6125;59.628;17.852;2023-04-08T10:51:41;9.60;99.90
12123;DHT22;6125;59.628;17.852;2023-04-08T10:54:10;9.60;99.90
12123;DHT22;6125;59.628;17.852;2023-04-08T10:56:43;9.50;99.90
12123;DHT22;6125;59.628;17.852;2023-04-08T10:59:13;9.50;99.90
12123;DHT22;6125;59.628;17.852;2023-04-08T11:01:42;9.60;99.90
12123;DHT22;6125;59.628;17.852;2023-04-08T11:04:12;9.80;99.90
12123;DHT22;6125;59.628;17.852;2023-04-08T11:06:41;9.80;99.90
12123;DHT22;6125;59.628;17.852;2023-04-08T11:09:08;9.80;99.90
12123;DHT22;6125;59.628;17.852;2023-04-08T11:11:35;9.90;99.90
12123;DHT22;6125;59.628;17.852;2023-04-08T11:14:03;9.90;99.90
12123;DHT22;6125;59.628;17.852;2023-04-08T11:16:32;10.10;99.90
12123;DHT22;6125;59.628;17.852;2023-04-08T11:19:02;10.10;99.90
12123;DHT22;6125;59.628;17.852;2023-04-08T11:21:30;10.20;99.90
12123;DHT22;6125;59.628;17.852;2023-04-08T11:23:57;10.30;99.90
12123;DHT22;6125;59.628;17.852;2023-04-08T11:26:25;10.40;99.90
12123;DHT22;6125;59.628;17.852;2023-04-08T11:28:53;10.60;99.90
12123;DHT22;6125;59.628;17.852;2023-04-08T11:31:22;10.80;99.90
12123;DHT22;6125;59.628;17.852;2023-04-08T11:33:52;10.90;99.90
12123;DHT22;6125;59.628;17.852;2023-04-08T11:36:20;11.10;99.90
12123;DHT22;6125;59.628;17.852;2023-04-08T11:38:48;10.90;99.90
12123;DHT22;6125;59.628;17.852;2023-04-08T11:41:15;10.80;99.90
12123;DHT22;6125;59.628;17.852;2023-04-08T11:43:53;10.80;99.90
12123;DHT22;6125;59.628;17.852;2023-04-08T11:46:20;10.90;99.90
12123;DHT22;6125;59.628;17.852;2023-04-08T11:48:59;11.00;99.90
12123;DHT22;6125;59.628;17.852;2023-04-08T11:51:27;11.10;99.90
12123;DHT22;6125;59.628;17.852;2023-04-08T11:53:54;11.00;99.90
12123;DHT22;6125;59.628;17.852;2023-04-08T11:56:22;11.00;99.90
12123;DHT22;6125;59.628;17.852;2023-04-08T11:58:50;11.00;99.90
12123;DHT22;6125;59.628;17.852;2023-04-08T12:01:18;10.90;99.90
12123;DHT22;6125;59.628;17.852;2023-04-08T12:03:55;10.90;99.90
12123;DHT22;6125;59.628;17.852;2023-04-08T12:06:24;10.90;99.90
12123;DHT22;6125;59.628;17.852;2023-04-08T12:08:53;11.00;99.90
12123;DHT22;6125;59.628;17.852;2023-04-08T12:11:20;10.90;99.90
12123;DHT22;6125;59.628;17.852;2023-04-08T12:13:47;10.90;99.90
12123;DHT22;6125;59.628;17.852;2023-04-08T12:16:15;10.90;99.90
12123;DHT22;6125;59.628;17.852;2023-04-08T12:18:43;11.00;99.90
12123;DHT22;6125;59.628;17.852;2023-04-08T12:21:10;11.10;99.90
12123;DHT22;6125;59.628;17.852;2023-04-08T12:23:38;11.30;99.90
12123;DHT22;6125;59.628;17.852;2023-04-08T12:26:05;11.40;99.90
12123;DHT22;6125;59.628;17.852;2023-04-08T12:28:32;11.30;99.90
12123;DHT22;6125;59.628;17.852;2023-04-08T12:31:00;11.40;99.90
12123;DHT22;6125;59.628;17.852;2023-04-08T12:33:27;11.40;99.90
12123;DHT22;6125;59.628;17.852;2023-04-08T12:35:55;11.40;99.90
12123;DHT22;6125;59.628;17.852;2023-04-08T12:38:23;11.40;99.90
12123;DHT22;6125;59.628;17.852;2023-04-08T12:40:52;11.40;99.90
12123;DHT22;6125;59.628;17.852;2023-04-08T12:43:20;11.50;99.90
12123;DHT22;6125;59.628;17.852;2023-04-08T12:45:48;11.70;99.90
12123;DHT22;6125;59.628;17.852;2023-04-08T12:48:15;12.00;99.90
12123;DHT22;6125;59.628;17.852;2023-04-08T12:50:42;12.10;99.90
12123;DHT22;6125;59.628;17.852;2023-04-08T12:53:09;12.30;99.90
12123;DHT22;6125;59.628;17.852;2023-04-08T12:55:36;12.40;99.90
12123;DHT22;6125;59.628;17.852;2023-04-08T12:58:05;12.50;99.90
12123;DHT22;6125;59.628;17.852;2023-04-08T13:00:32;12.50;99.90
12123;DHT22;6125;59.628;17.852;2023-04-08T13:03:02;12.30;99.90
12123;DHT22;6125;59.628;17.852;2023-04-08T13:05:29;12.20;99.90
12123;DHT22;6125;59.628;17.852;2023-04-08T13:07:56;12.10;99.90
12123;DHT22;6125;59.628;17.852;2023-04-08T13:10:23;12.10;99.90
12123;DHT22;6125;59.628;17.852;2023-04-08T13:12:51;12.10;99.90
12123;DHT22;6125;59.628;17.852;2023-04-08T13:15:19;12.10;99.90
12123;DHT22;6125;59.628;17.852;2023-04-08T13:17:46;12.40;99.90
12123;DHT22;6125;59.628;17.852;2023-04-08T13:20:13;12.70;99.90
12123;DHT22;6125;59.628;17.852;2023-04-08T13:22:40;12.90;99.90
12123;DHT22;6125;59.628;17.852;2023-04-08T13:25:08;12.80;99.90
12123;DHT22;6125;59.628;17.852;2023-04-08T13:27:35;12.90;99.90
12123;DHT22;6125;59.628;17.852;2023-04-08T13:30:02;13.10;99.90
12123;DHT22;6125;59.628;17.852;2023-04-08T13:32:30;13.00;99.50
12123;DHT22;6125;59.628;17.852;2023-04-08T13:34:57;12.80;98.20
12123;DHT22;6125;59.628;17.852;2023-04-08T13:37:24;12.80;98.10
12123;DHT22;6125;59.628;17.852;2023-04-08T13:39:51;12.80;98.10
12123;DHT22;6125;59.628;17.852;2023-04-08T13:42:18;13.00;98.40
12123;DHT22;6125;59.628;17.852;2023-04-08T13:44:46;13.00;97.20
12123;DHT22;6125;59.628;17.852;2023-04-08T13:47:13;13.10;96.30
12123;DHT22;6125;59.628;17.852;2023-04-08T13:49:41;13.30;96.50
12123;DHT22;6125;59.628;17.852;2023-04-08T13:52:08;13.40;96.90
12123;DHT22;6125;59.628;17.852;2023-04-08T13:54:35;13.70;97.60
12123;DHT22;6125;59.628;17.852;2023-04-08T13:57:03;14.20;95.10
12123;DHT22;6125;59.628;17.852;2023-04-08T13:59:29;14.20;95.30
12123;DHT22;6125;59.628;17.852;2023-04-08T14:01:56;14.50;94.90
12123;DHT22;6125;59.628;17.852;2023-04-08T14:04:24;14.90;95.10
12123;DHT22;6125;59.628;17.852;2023-04-08T14:06:52;14.60;92.00
12123;DHT22;6125;59.628;17.852;2023-04-08T14:09:19;14.60;92.20
12123;DHT22;6125;59.628;17.852;2023-04-08T14:11:46;15.00;90.50
12123;DHT22;6125;59.628;17.852;2023-04-08T14:14:13;14.50;90.00
12123;DHT22;6125;59.628;17.852;2023-04-08T14:16:40;14.20;90.30
12123;DHT22;6125;59.628;17.852;2023-04-08T14:19:08;14.20;90.40
12123;DHT22;6125;59.628;17.852;2023-04-08T14:21:35;14.60;90.70
12123;DHT22;6125;59.628;17.852;2023-04-08T14:24:04;15.00;90.60
12123;DHT22;6125;59.628;17.852;2023-04-08T14:26:32;15.50;85.90
12123;DHT22;6125;59.628;17.852;2023-04-08T14:29:01;15.20;84.40
12123;DHT22;6125;59.628;17.852;2023-04-08T14:31:29;15.10;75.20
12123;DHT22;6125;59.628;17.852;2023-04-08T14:33:56;14.60;71.50
12123;DHT22;6125;59.628;17.852;2023-04-08T14:36:23;14.20;71.90
12123;DHT22;6125;59.628;17.852;2023-04-08T14:38:51;13.90;71.40
12123;DHT22;6125;59.628;17.852;2023-04-08T14:41:19;13.80;76.20
12123;DHT22;6125;59.628;17.852;2023-04-08T14:43:47;14.10;74.70
12123;DHT22;6125;59.628;17.852;2023-04-08T14:46:14;14.50;77.50
12123;DHT22;6125;59.628;17.852;2023-04-08T14:48:41;15.00;73.10
12123;DHT22;6125;59.628;17.852;2023-04-08T14:51:08;15.20;73.30
12123;DHT22;6125;59.628;17.852;2023-04-08T14:53:35;15.20;71.60
12123;DHT22;6125;59.628;17.852;2023-04-08T14:56:03;15.30;71.60
12123;DHT22;6125;59.628;17.852;2023-04-08T14:58:32;15.50;68.30
12123;DHT22;6125;59.628;17.852;2023-04-08T15:00:59;15.60;69.80
12123;DHT22;6125;59.628;17.852;2023-04-08T15:03:26;15.70;68.90
12123;DHT22;6125;59.628;17.852;2023-04-08T15:05:53;15.50;67.30
12123;DHT22;6125;59.628;17.852;2023-04-08T15:08:21;15.10;66.00
12123;DHT22;6125;59.628;17.852;2023-04-08T15:10:48;14.40;66.50
12123;DHT22;6125;59.628;17.852;2023-04-08T15:13:15;14.30;68.10
12123;DHT22;6125;59.628;17.852;2023-04-08T15:15:50;14.10;67.60
12123;DHT22;6125;59.628;17.852;2023-04-08T15:18:17;14.20;65.40
12123;DHT22;6125;59.628;17.852;2023-04-08T15:20:44;14.00;67.20
12123;DHT22;6125;59.628;17.852;2023-04-08T15:23:19;13.90;64.80
12123;DHT22;6125;59.628;17.852;2023-04-08T15:25:46;13.60;66.00
12123;DHT22;6125;59.628;17.852;2023-04-08T15:28:13;13.50;66.90
12123;DHT22;6125;59.628;17.852;2023-04-08T15:30:40;13.50;67.60
12123;DHT22;6125;59.628;17.852;2023-04-08T15:33:10;13.40;67.60
12123;DHT22;6125;59.628;17.852;2023-04-08T15:35:37;13.40;68.00
12123;DHT22;6125;59.628;17.852;2023-04-08T15:38:04;13.30;64.80
12123;DHT22;6125;59.628;17.852;2023-04-08T15:40:32;12.90;67.10
12123;DHT22;6125;59.628;17.852;2023-04-08T15:42:59;12.80;68.20
12123;DHT22;6125;59.628;17.852;2023-04-08T15:45:26;12.80;68.40
12123;DHT22;6125;59.628;17.852;2023-04-08T15:47:54;12.60;66.10
12123;DHT22;6125;59.628;17.852;2023-04-08T15:50:22;12.20;64.90